createdAt,value
2018-05-10T00:01:39.805Z,4.50
2018-05-10T00:04:05.561Z,6.37
2018-05-10T00:06:31.297Z,5.60
2018-05-10T00:08:57.040Z,5.20
2018-05-10T00:11:22.793Z,5.57
2018-05-10T00:13:48.519Z,3.93
2018-05-10T00:16:14.269Z,4.70
2018-05-10T00:18:40.008Z,7.73
2018-05-10T00:21:05.759Z,6.03
2018-05-10T00:23:31.496Z,4.17
2018-05-10T00:25:57.249Z,5.60
2018-05-10T00:28:22.997Z,4.83
2018-05-10T00:30:48.738Z,5.40
2018-05-10T00:33:14.468Z,5.77
2018-05-10T00:35:40.211Z,8.57
2018-05-10T00:38:05.936Z,8.10
2018-05-10T00:40:31.686Z,5.03
2018-05-10T00:42:57.408Z,6.40
2018-05-10T00:45:23.172Z,5.47
2018-05-10T00:47:48.900Z,4.33
2018-05-10T00:50:14.649Z,8.03
2018-05-10T00:52:40.415Z,9.03
2018-05-10T00:55:06.181Z,6.43
2018-05-10T00:57:31.929Z,6.63
2018-05-10T00:59:57.667Z,7.43
2018-05-10T01:02:23.417Z,6.40
2018-05-10T01:04:49.164Z,4.53
2018-05-10T01:07:14.912Z,5.83
2018-05-10T01:09:40.649Z,6.40
2018-05-10T01:12:06.404Z,5.00
2018-05-10T01:14:32.128Z,10.13
2018-05-10T01:16:57.880Z,3.93
2018-05-10T01:19:23.604Z,3.90
2018-05-10T01:21:49.368Z,8.33
2018-05-10T01:24:15.102Z,4.97
2018-05-10T01:26:40.852Z,6.40
2018-05-10T01:29:06.592Z,7.40
2018-05-10T01:31:32.344Z,8.47
2018-05-10T01:33:58.080Z,4.17
2018-05-10T01:36:23.816Z,6.07
2018-05-10T01:38:49.570Z,9.03
2018-05-10T01:41:15.300Z,8.57
2018-05-10T01:43:41.064Z,6.67
2018-05-10T01:46:06.821Z,5.27
2018-05-10T01:48:32.564Z,9.60
2018-05-10T01:50:58.295Z,5.10
2018-05-10T01:53:24.040Z,6.30
2018-05-10T01:55:49.781Z,4.67
2018-05-10T01:58:15.529Z,5.67
2018-05-10T02:00:41.259Z,5.70
2018-05-10T02:03:06.992Z,7.13
2018-05-10T02:05:32.722Z,7.70
2018-05-10T02:07:58.471Z,7.33
2018-05-10T02:10:24.206Z,5.07
2018-05-10T02:12:49.942Z,6.30
2018-05-10T02:15:15.709Z,8.27
2018-05-10T02:17:41.453Z,5.97
2018-05-10T02:20:07.184Z,5.83
2018-05-10T02:22:32.917Z,6.77
2018-05-10T02:24:58.691Z,6.37
2018-05-10T02:27:24.440Z,5.40
2018-05-10T02:29:50.206Z,4.70
2018-05-10T02:32:15.920Z,5.53
2018-05-10T02:34:41.666Z,4.43
2018-05-10T02:37:07.401Z,8.47
2018-05-10T02:39:33.149Z,7.70
2018-05-10T02:41:58.877Z,5.33
2018-05-10T02:44:24.611Z,4.57
2018-05-10T02:46:50.354Z,9.27
2018-05-10T02:49:16.089Z,7.03
2018-05-10T02:51:41.826Z,7.23
2018-05-10T02:54:07.564Z,7.53
2018-05-10T02:56:33.311Z,5.83
2018-05-10T02:58:59.064Z,6.93
2018-05-10T03:01:24.801Z,5.13
2018-05-10T03:03:50.533Z,6.83
2018-05-10T03:06:16.280Z,4.97
2018-05-10T03:08:42.024Z,6.73
2018-05-10T03:11:07.761Z,5.77
2018-05-10T03:13:33.498Z,3.90
2018-05-10T03:15:59.232Z,7.13
2018-05-10T03:18:24.976Z,7.63
2018-05-10T03:20:50.731Z,6.23
2018-05-10T03:23:16.449Z,5.53
2018-05-10T03:25:42.203Z,6.23
2018-05-10T03:28:07.920Z,8.13
2018-05-10T03:30:33.669Z,6.07
2018-05-10T03:32:59.396Z,6.13
2018-05-10T03:35:25.123Z,6.97
2018-05-10T03:37:50.864Z,5.57
2018-05-10T03:40:16.612Z,8.40
2018-05-10T03:42:42.352Z,5.83
2018-05-10T03:45:08.101Z,5.30
2018-05-10T03:47:33.834Z,6.07
2018-05-10T03:49:59.576Z,9.33
2018-05-10T03:52:25.299Z,8.20
2018-05-10T03:54:51.045Z,5.00
2018-05-10T03:57:16.772Z,5.97
2018-05-10T03:59:42.518Z,6.67
2018-05-10T04:02:08.244Z,7.37
2018-05-10T04:04:46.471Z,9.20
2018-05-10T04:07:25.460Z,4.70
2018-05-10T04:10:03.700Z,10.27
2018-05-10T04:12:29.440Z,5.63
2018-05-10T04:14:55.201Z,10.33
2018-05-10T04:17:20.928Z,7.63
2018-05-10T04:19:46.668Z,6.27
2018-05-10T04:22:12.400Z,4.87
2018-05-10T04:24:38.129Z,6.10
2018-05-10T04:27:03.871Z,7.60
2018-05-10T04:29:29.603Z,8.67
2018-05-10T04:31:55.346Z,5.97
2018-05-10T04:34:21.078Z,9.40
2018-05-10T04:36:46.831Z,6.27
2018-05-10T04:39:12.563Z,6.97
2018-05-10T04:41:38.312Z,11.53
2018-05-10T04:44:04.045Z,5.43
2018-05-10T04:46:29.798Z,10.40
2018-05-10T04:48:55.526Z,4.93
2018-05-10T04:51:21.265Z,7.33
2018-05-10T04:53:47.004Z,8.20
2018-05-10T04:56:12.748Z,8.43
2018-05-10T04:58:38.476Z,7.60
2018-05-10T05:01:04.212Z,9.30
2018-05-10T05:03:29.966Z,6.77
2018-05-10T05:05:55.672Z,6.50
2018-05-10T05:08:21.415Z,5.40
2018-05-10T05:10:47.156Z,7.70
2018-05-10T05:13:12.883Z,9.20
2018-05-10T05:15:38.608Z,7.87
2018-05-10T05:18:04.350Z,7.80
2018-05-10T05:20:30.092Z,7.23
2018-05-10T05:22:55.845Z,9.20
2018-05-10T05:25:21.573Z,6.30
2018-05-10T05:27:47.324Z,6.40
2018-05-10T05:30:13.049Z,6.93
2018-05-10T05:32:38.794Z,6.67
2018-05-10T05:35:04.523Z,7.87
2018-05-10T05:37:30.272Z,6.20
2018-05-10T05:39:56.004Z,6.90
2018-05-10T05:42:21.744Z,6.97
2018-05-10T05:44:47.471Z,8.50
2018-05-10T05:47:13.209Z,6.20
2018-05-10T05:49:38.939Z,6.00
2018-05-10T05:52:04.679Z,5.83
2018-05-10T05:54:30.404Z,7.60
2018-05-10T05:56:56.149Z,6.70
2018-05-10T05:59:21.938Z,9.37
2018-05-10T06:01:47.709Z,6.67
2018-05-10T06:04:13.433Z,6.73
2018-05-10T06:06:39.164Z,7.20
2018-05-10T06:09:04.917Z,7.33
2018-05-10T06:11:30.656Z,5.83
2018-05-10T06:13:56.396Z,6.00
2018-05-10T06:16:22.148Z,7.40
2018-05-10T06:18:47.889Z,8.20
2018-05-10T06:21:13.630Z,6.13
2018-05-10T06:23:39.368Z,7.87
2018-05-10T06:26:05.115Z,5.50
2018-05-10T06:28:30.879Z,7.17
2018-05-10T06:30:56.613Z,9.13
2018-05-10T06:33:22.361Z,9.77
2018-05-10T06:35:48.099Z,10.50
2018-05-10T06:38:13.854Z,9.53
2018-05-10T06:40:39.609Z,7.77
2018-05-10T06:43:05.343Z,12.20
2018-05-10T06:45:31.084Z,6.13
2018-05-10T06:47:56.830Z,10.70
2018-05-10T06:50:22.579Z,8.70
2018-05-10T06:52:48.329Z,8.00
2018-05-10T06:55:14.068Z,7.83
2018-05-10T06:57:39.816Z,6.27
2018-05-10T07:00:05.544Z,12.60
2018-05-10T07:02:31.288Z,8.03
2018-05-10T07:04:57.022Z,8.90
2018-05-10T07:07:22.769Z,10.40
2018-05-10T07:09:48.645Z,11.33
2018-05-10T07:12:14.257Z,8.40
2018-05-10T07:14:39.984Z,8.77
2018-05-10T07:17:05.739Z,11.00
2018-05-10T07:19:31.476Z,7.87
2018-05-10T07:21:57.213Z,6.90
2018-05-10T07:24:22.952Z,8.40
2018-05-10T07:26:48.692Z,10.27
2018-05-10T07:29:14.442Z,11.27
2018-05-10T07:31:40.176Z,5.97
2018-05-10T07:34:05.909Z,7.70
2018-05-10T07:36:31.665Z,7.27
2018-05-10T07:38:57.404Z,9.27
2018-05-10T07:41:23.164Z,7.87
2018-05-10T07:43:48.896Z,10.43
2018-05-10T07:46:14.624Z,6.67
2018-05-10T07:48:40.384Z,9.20
2018-05-10T07:51:06.148Z,7.67
2018-05-10T07:53:31.891Z,12.03
2018-05-10T07:55:57.646Z,7.27
2018-05-10T07:58:23.385Z,9.20
2018-05-10T08:00:49.105Z,10.97
2018-05-10T08:03:14.840Z,9.37
2018-05-10T08:05:40.573Z,9.17
2018-05-10T08:08:06.346Z,10.00
2018-05-10T08:10:32.079Z,13.80
2018-05-10T08:12:57.807Z,10.60
2018-05-10T08:15:23.548Z,7.07
2018-05-10T08:17:49.300Z,9.73
2018-05-10T08:20:15.057Z,9.70
2018-05-10T08:22:40.836Z,8.17
2018-05-10T08:25:06.590Z,7.57
2018-05-10T08:27:44.784Z,8.77
2018-05-10T08:30:10.566Z,8.83
2018-05-10T08:32:36.269Z,8.20
2018-05-10T08:35:02.020Z,8.50
2018-05-10T08:37:27.772Z,9.97
2018-05-10T08:39:53.541Z,5.93
2018-05-10T08:42:19.280Z,8.73
2018-05-10T08:44:45.019Z,13.10
2018-05-10T08:47:10.738Z,10.23
2018-05-10T08:49:36.472Z,8.60
2018-05-10T08:52:02.230Z,7.23
2018-05-10T08:54:27.963Z,11.17
2018-05-10T08:56:53.725Z,5.97
2018-05-10T08:59:19.457Z,8.60
2018-05-10T09:01:45.216Z,7.23
2018-05-10T09:04:10.977Z,10.30
2018-05-10T09:06:36.734Z,8.07
2018-05-10T09:09:02.509Z,9.97
2018-05-10T09:11:28.250Z,10.50
2018-05-10T09:13:53.998Z,8.23
2018-05-10T09:16:19.744Z,8.20
2018-05-10T09:18:45.484Z,11.83
2018-05-10T09:21:11.220Z,9.20
2018-05-10T09:23:36.951Z,12.07
2018-05-10T09:26:02.725Z,7.87
2018-05-10T09:28:28.426Z,9.07
2018-05-10T09:30:54.156Z,10.33
2018-05-10T09:33:19.896Z,6.43
2018-05-10T09:35:45.634Z,13.60
2018-05-10T09:38:11.365Z,7.70
2018-05-10T09:40:37.115Z,9.13
2018-05-10T09:43:02.866Z,9.17
2018-05-10T09:45:28.784Z,6.43
2018-05-10T09:47:54.544Z,7.83
2018-05-10T09:50:20.298Z,8.10
2018-05-10T09:52:46.063Z,8.37
2018-05-10T09:55:11.771Z,9.50
2018-05-10T09:57:37.500Z,10.90
2018-05-10T10:00:03.241Z,10.97
2018-05-10T10:02:28.968Z,13.57
2018-05-10T10:04:54.713Z,9.67
2018-05-10T10:07:20.441Z,11.07
2018-05-10T10:09:46.185Z,12.33
2018-05-10T10:12:11.916Z,12.23
2018-05-10T10:14:37.653Z,9.20
2018-05-10T10:17:03.389Z,9.00
2018-05-10T10:19:29.133Z,8.07
2018-05-10T10:21:54.871Z,12.33
2018-05-10T10:24:20.611Z,9.43
2018-05-10T10:26:46.340Z,8.53
2018-05-10T10:29:12.087Z,8.53
2018-05-10T10:31:37.825Z,8.57
2018-05-10T10:34:03.565Z,9.77
2018-05-10T10:36:29.284Z,7.97
2018-05-10T10:38:55.017Z,12.27
2018-05-10T10:41:20.760Z,11.40
2018-05-10T10:43:46.490Z,12.13
2018-05-10T10:46:12.219Z,10.40
2018-05-10T10:48:37.957Z,9.77
2018-05-10T10:51:03.700Z,10.50
2018-05-10T10:53:29.424Z,9.93
2018-05-10T10:55:55.153Z,8.33
2018-05-10T10:58:20.885Z,7.53
2018-05-10T11:00:46.643Z,11.07
2018-05-10T11:03:12.373Z,10.40
2018-05-10T11:05:38.104Z,11.57
2018-05-10T11:08:03.857Z,9.40
2018-05-10T11:10:29.596Z,10.93
2018-05-10T11:12:55.328Z,9.53
2018-05-10T11:15:21.067Z,7.70
2018-05-10T11:17:46.821Z,10.47
2018-05-10T11:20:12.561Z,7.73
2018-05-10T11:22:38.360Z,10.90
2018-05-10T11:25:04.094Z,10.53
2018-05-10T11:27:29.836Z,12.43
2018-05-10T11:29:55.588Z,9.73
2018-05-10T11:32:21.331Z,11.23
2018-05-10T11:34:47.073Z,9.63
2018-05-10T11:37:12.807Z,11.33
2018-05-10T11:39:38.545Z,10.40
2018-05-10T11:42:04.287Z,11.40
2018-05-10T11:44:30.087Z,10.07
2018-05-10T11:46:55.768Z,7.83
2018-05-10T11:49:21.500Z,9.43
2018-05-10T11:51:47.241Z,9.63
2018-05-10T11:54:12.980Z,11.03
2018-05-10T11:56:38.723Z,9.43
2018-05-10T11:59:04.448Z,11.73
2018-05-10T12:01:30.189Z,7.93
2018-05-10T12:03:55.940Z,8.83
2018-05-10T12:06:21.684Z,8.83
2018-05-10T12:08:47.675Z,6.57
2018-05-10T12:11:13.445Z,10.23
2018-05-10T12:13:39.430Z,10.20
2018-05-10T12:16:05.368Z,11.77
2018-05-10T12:18:31.097Z,11.10
2018-05-10T12:20:57.253Z,15.63
2018-05-10T12:23:23.371Z,10.97
2018-05-10T12:25:49.599Z,12.10
2018-05-10T12:28:15.837Z,9.73
2018-05-10T12:30:42.033Z,8.67
2018-05-10T12:33:08.156Z,8.63
2018-05-10T12:35:34.366Z,7.83
2018-05-10T12:38:00.478Z,8.73
2018-05-10T12:40:26.498Z,9.43
2018-05-10T12:42:52.373Z,9.30
2018-05-10T12:45:18.635Z,9.77
2018-05-10T12:47:44.758Z,12.20
2018-05-10T12:50:11.656Z,9.77
2018-05-10T12:52:37.764Z,9.37
2018-05-10T12:55:03.921Z,7.07
2018-05-10T12:57:30.018Z,13.53
2018-05-10T12:59:56.112Z,34.60
2018-05-10T13:02:22.244Z,24.40
2018-05-10T13:04:48.374Z,28.60
2018-05-10T13:07:14.580Z,27.47
2018-05-10T13:09:41.733Z,32.33
2018-05-10T13:12:08.738Z,33.17
2018-05-10T13:14:35.155Z,35.23
2018-05-10T13:17:01.307Z,43.93
2018-05-10T13:19:28.480Z,59.57
2018-05-10T13:21:54.444Z,64.77
2018-05-10T13:24:20.368Z,85.53
2018-05-10T13:26:47.385Z,82.50
2018-05-10T13:29:13.627Z,71.37
2018-05-10T13:31:39.767Z,77.13
2018-05-10T13:34:05.835Z,73.60
2018-05-10T13:36:32.012Z,75.20
2018-05-10T13:38:57.898Z,87.17
2018-05-10T13:41:23.896Z,66.90
2018-05-10T13:43:50.038Z,63.87
2018-05-10T13:46:15.971Z,66.57
2018-05-10T13:48:42.165Z,76.77
2018-05-10T13:51:08.379Z,76.63
2018-05-10T13:53:34.421Z,85.27
2018-05-10T13:56:02.284Z,74.63
2018-05-10T13:58:28.423Z,80.50
2018-05-10T14:00:54.625Z,80.27
2018-05-10T14:03:23.408Z,81.63
2018-05-10T14:05:49.570Z,85.23
2018-05-10T14:08:15.796Z,75.87
2018-05-10T14:10:41.968Z,72.13
2018-05-10T14:13:08.922Z,81.20
2018-05-10T14:15:35.097Z,70.90
2018-05-10T14:18:01.268Z,86.33
2018-05-10T14:20:27.542Z,80.57
2018-05-10T14:22:53.753Z,79.63
2018-05-10T14:25:20.013Z,78.37
2018-05-10T14:27:46.400Z,90.83
2018-05-10T14:30:12.613Z,77.53
2018-05-10T14:32:38.858Z,77.67
2018-05-10T14:35:04.955Z,97.37
2018-05-10T14:37:31.451Z,90.20
2018-05-10T14:39:57.554Z,101.23
2018-05-10T14:42:23.684Z,79.53
2018-05-10T14:44:50.931Z,79.83
2018-05-10T14:47:17.217Z,80.50
2018-05-10T14:49:44.173Z,78.67
2018-05-10T14:52:10.349Z,69.23
2018-05-10T14:54:36.447Z,76.50
2018-05-10T14:57:02.859Z,73.30
2018-05-10T14:59:29.414Z,70.50
2018-05-10T15:01:55.558Z,72.83
2018-05-10T15:04:21.678Z,77.23
2018-05-10T15:06:47.486Z,67.57
2018-05-10T15:09:15.589Z,79.57
2018-05-10T15:11:41.799Z,77.63
2018-05-10T15:14:07.628Z,79.60
2018-05-10T15:16:33.380Z,72.10
2018-05-10T15:18:59.141Z,67.43
2018-05-10T15:21:24.893Z,77.40
2018-05-10T15:23:50.647Z,61.67
2018-05-10T15:26:16.391Z,73.70
2018-05-10T15:28:42.146Z,65.80
2018-05-10T15:31:07.884Z,68.33
2018-05-10T15:33:33.633Z,72.20
2018-05-10T15:35:59.360Z,68.97
2018-05-10T15:38:25.110Z,63.47
2018-05-10T15:40:50.849Z,58.53
2018-05-10T15:43:16.581Z,66.30
2018-05-10T15:45:42.314Z,58.17
2018-05-10T15:48:08.049Z,77.73
2018-05-10T15:50:34.384Z,63.57
2018-05-10T15:53:01.449Z,74.53
2018-05-10T15:55:29.253Z,66.00
2018-05-10T15:57:56.997Z,66.20
2018-05-10T16:00:22.757Z,66.37
2018-05-10T16:02:48.508Z,64.20
2018-05-10T16:05:14.322Z,55.60
2018-05-10T16:07:40.084Z,61.60
2018-05-10T16:10:06.736Z,62.83
2018-05-10T16:12:34.116Z,62.73
2018-05-10T16:14:59.876Z,59.07
2018-05-10T16:17:26.251Z,58.63
2018-05-10T16:19:51.993Z,57.70
2018-05-10T16:22:17.736Z,58.57
2018-05-10T16:24:43.456Z,54.00
2018-05-10T16:27:09.213Z,54.00
2018-05-10T16:29:34.947Z,64.93
2018-05-10T16:32:00.684Z,51.17
2018-05-10T16:34:26.407Z,62.67
2018-05-10T16:36:52.156Z,45.53
2018-05-10T16:39:17.893Z,34.77
2018-05-10T16:41:43.623Z,33.77
2018-05-10T16:44:09.372Z,40.60
2018-05-10T16:46:35.108Z,32.37
2018-05-10T16:49:00.849Z,31.17
2018-05-10T16:51:26.574Z,31.77
2018-05-10T16:53:52.319Z,27.77
2018-05-10T16:56:18.048Z,28.90
2018-05-10T16:58:43.797Z,27.63
2018-05-10T17:01:09.538Z,28.97
2018-05-10T17:03:35.296Z,26.07
2018-05-10T17:06:01.016Z,22.20
2018-05-10T17:08:26.787Z,20.27
2018-05-10T17:10:53.392Z,22.53
2018-05-10T17:13:20.240Z,19.63
2018-05-10T17:15:47.067Z,19.23
2018-05-10T17:18:14.807Z,17.07
2018-05-10T17:20:41.260Z,14.57
2018-05-10T17:23:07.786Z,13.70
2018-05-10T17:25:33.565Z,13.60
2018-05-10T17:27:59.695Z,14.43
2018-05-10T17:30:25.455Z,8.57
2018-05-10T17:32:51.203Z,13.50
2018-05-10T17:35:16.935Z,13.63
2018-05-10T17:37:42.676Z,14.03
2018-05-10T17:40:08.402Z,11.97
2018-05-10T17:42:34.161Z,13.13
2018-05-10T17:45:00.705Z,9.60
2018-05-10T17:47:27.977Z,12.23
2018-05-10T17:49:53.775Z,8.10
2018-05-10T17:52:19.513Z,6.50
2018-05-10T17:54:45.239Z,9.30
2018-05-10T17:57:10.978Z,7.67
2018-05-10T17:59:36.720Z,7.20
2018-05-10T18:02:02.453Z,8.27
2018-05-10T18:04:28.208Z,7.93
2018-05-10T18:06:53.972Z,7.67
2018-05-10T18:09:19.716Z,7.00
2018-05-10T18:11:45.453Z,10.53
2018-05-10T18:14:11.225Z,5.50
2018-05-10T18:16:36.954Z,7.83
2018-05-10T18:19:02.689Z,10.00
2018-05-10T18:21:28.413Z,7.37
2018-05-10T18:23:54.164Z,9.50
2018-05-10T18:26:19.901Z,8.00
2018-05-10T18:28:45.644Z,9.03
2018-05-10T18:31:11.363Z,12.27
2018-05-10T18:33:37.100Z,11.10
2018-05-10T18:36:02.818Z,10.03
2018-05-10T18:38:28.566Z,8.40
2018-05-10T18:40:54.385Z,11.67
2018-05-10T18:43:20.029Z,6.83
2018-05-10T18:45:45.756Z,7.87
2018-05-10T18:48:11.493Z,11.97
2018-05-10T18:50:37.212Z,8.77
2018-05-10T18:53:02.933Z,8.17
2018-05-10T18:55:28.670Z,9.17
2018-05-10T18:57:54.388Z,7.57
2018-05-10T19:00:20.129Z,7.10
2018-05-10T19:02:45.847Z,7.83
2018-05-10T19:05:11.576Z,8.60
2018-05-10T19:07:37.298Z,6.63
2018-05-10T19:10:03.035Z,6.50
2018-05-10T19:12:28.757Z,9.57
2018-05-10T19:14:54.493Z,6.93
2018-05-10T19:17:20.213Z,8.27
2018-05-10T19:19:45.955Z,7.53
2018-05-10T19:22:11.680Z,9.63
2018-05-10T19:24:37.472Z,9.50
2018-05-10T19:27:03.149Z,7.00
2018-05-10T19:29:28.883Z,9.57
2018-05-10T19:31:54.665Z,6.53
2018-05-10T19:34:20.353Z,10.93
2018-05-10T19:36:46.079Z,11.47
2018-05-10T19:39:11.809Z,6.40
2018-05-10T19:41:37.529Z,10.70
2018-05-10T19:44:03.268Z,8.87
2018-05-10T19:46:29.017Z,10.53
2018-05-10T19:48:54.755Z,10.07
2018-05-10T19:51:20.496Z,6.63
2018-05-10T19:53:46.208Z,8.03
2018-05-10T19:56:11.928Z,8.67
2018-05-10T19:58:37.660Z,12.53
2018-05-10T20:01:03.395Z,8.77
2018-05-10T20:03:29.112Z,7.07
2018-05-10T20:05:54.843Z,12.77
2018-05-10T20:08:20.576Z,7.67
2018-05-10T20:10:46.315Z,6.77
2018-05-10T20:13:12.036Z,6.53
2018-05-10T20:15:37.776Z,9.73
2018-05-10T20:18:03.505Z,9.67
2018-05-10T20:20:29.231Z,9.73
2018-05-10T20:22:54.956Z,6.67
2018-05-10T20:25:20.687Z,9.27
2018-05-10T20:27:46.404Z,10.00
2018-05-10T20:30:12.133Z,9.47
2018-05-10T20:32:37.864Z,12.13
2018-05-10T20:35:04.730Z,8.30
2018-05-10T20:37:31.624Z,11.67
2018-05-10T20:39:57.409Z,8.37
2018-05-10T20:42:23.126Z,9.43
2018-05-10T20:44:48.982Z,10.83
2018-05-10T20:47:14.612Z,8.33
2018-05-10T20:49:40.349Z,8.03
2018-05-10T20:52:06.090Z,9.77
2018-05-10T20:54:31.819Z,7.70
2018-05-10T20:56:57.537Z,11.50
2018-05-10T20:59:23.274Z,8.33
2018-05-10T21:01:49.016Z,6.53
2018-05-10T21:04:14.827Z,9.17
2018-05-10T21:06:40.497Z,10.33
2018-05-10T21:09:06.236Z,10.30
2018-05-10T21:11:31.964Z,7.73
2018-05-10T21:13:57.686Z,7.60
2018-05-10T21:16:23.495Z,8.30
2018-05-10T21:18:49.156Z,7.93
2018-05-10T21:21:14.896Z,8.20
2018-05-10T21:23:40.612Z,8.77
2018-05-10T21:26:06.370Z,10.23
2018-05-10T21:28:32.072Z,6.50
2018-05-10T21:30:57.809Z,6.90
2018-05-10T21:33:23.532Z,8.17
2018-05-10T21:35:49.267Z,13.17
2018-05-10T21:38:14.992Z,8.90
2018-05-10T21:40:40.726Z,8.43
2018-05-10T21:43:06.444Z,10.57
2018-05-10T21:45:32.180Z,6.70
2018-05-10T21:47:57.893Z,8.13
2018-05-10T21:50:26.465Z,9.80
2018-05-10T21:52:52.195Z,9.13
2018-05-10T21:55:17.932Z,9.93
2018-05-10T21:57:43.656Z,8.50
2018-05-10T22:00:09.401Z,10.00
2018-05-10T22:02:35.121Z,9.57
2018-05-10T22:05:00.864Z,8.67
2018-05-10T22:07:26.611Z,11.43
2018-05-10T22:09:52.344Z,10.47
2018-05-10T22:12:18.079Z,10.57
2018-05-10T22:14:43.799Z,8.40
2018-05-10T22:17:09.540Z,10.97
2018-05-10T22:19:35.256Z,8.23
2018-05-10T22:22:01.036Z,8.93
2018-05-10T22:24:26.792Z,7.07
2018-05-10T22:26:52.532Z,10.53
2018-05-10T22:29:18.265Z,9.40
2018-05-10T22:31:44.004Z,8.77
2018-05-10T22:34:09.731Z,10.77
2018-05-10T22:36:35.470Z,13.33
2018-05-10T22:39:01.192Z,9.90
2018-05-10T22:41:27.018Z,10.33
2018-05-10T22:43:52.778Z,8.13
2018-05-10T22:46:18.518Z,8.80
2018-05-10T22:48:44.235Z,11.13
2018-05-10T22:51:09.975Z,7.77
2018-05-10T22:53:35.711Z,8.27
2018-05-10T22:56:01.552Z,8.40
2018-05-10T22:58:27.221Z,10.47
2018-05-10T23:00:52.957Z,11.83
2018-05-10T23:03:18.727Z,6.03
2018-05-10T23:05:44.693Z,9.93
2018-05-10T23:08:10.429Z,10.53
2018-05-10T23:10:36.174Z,8.33
2018-05-10T23:13:02.136Z,7.27
2018-05-10T23:15:27.864Z,5.53
2018-05-10T23:17:53.598Z,7.83
2018-05-10T23:20:19.324Z,5.33
2018-05-10T23:22:45.117Z,7.40
2018-05-10T23:25:10.836Z,7.77
2018-05-10T23:27:36.572Z,6.17
2018-05-10T23:30:02.289Z,6.20
2018-05-10T23:32:28.032Z,4.47
2018-05-10T23:34:53.788Z,8.77
2018-05-10T23:37:19.524Z,8.40
2018-05-10T23:39:45.242Z,7.00
2018-05-10T23:42:10.980Z,8.13
2018-05-10T23:44:36.698Z,7.43
2018-05-10T23:47:02.441Z,10.20
2018-05-10T23:49:28.159Z,9.00
2018-05-10T23:51:53.900Z,9.47
2018-05-10T23:54:19.617Z,7.03
2018-05-10T23:56:45.352Z,7.33
2018-05-10T23:59:11.069Z,9.60
